メインページ
METAR-TAF:

METAR-TAF

空港 :

ブカレスト, ルーマニア

アンリ・コアンダ国際空港

緯度: 44-33N, 経度: 026-06E, 海抜: 95m

現時点の気象観測

当レポートは39分前の15:00(UTC)に作成
変向風 1kt
気温 32°C
湿度 38%
気圧 1013 hPa
視程10km以上
1,500メートル以下は雲なし、積乱雲なし

METAR: LROP 251500Z VRB01KT CAVOK 32/16 Q1013 NOSIG

時間: 18:39 (15:39 UTC)


TAF: 見つかりません

4,000以上の空港の気象観測と天気予報(METAR報とTAF報)

利用可能な観測所は地図上に黄色い丸と赤い丸で示す。

丸の上にカーソルを重ねると観測所名を参照できる。

次にクリックすると気象観測と天気予報を参照できる。

マップの切り替え:黒色「×」印の緑ボタンをクリックして拡大、「-」印の緑ボタンをクリックして縮小、緑色の三角印をクリックして隣りの地図に切り替え


METAR-TAF: